sensor_id;sensor_type;location;lat;lon;timestamp;pressure;altitude;pressure_sealevel;temperature;humidity
28456;BME280;15682;56.742;38.866;2022-07-24T00:00:38;99240.0;;;17.1;91.3
28456;BME280;15682;56.742;38.866;2022-07-24T00:02:38;99240.0;;;17.1;91.3
28456;BME280;15682;56.742;38.866;2022-07-24T00:04:39;99240.0;;;17.1;91.2
28456;BME280;15682;56.742;38.866;2022-07-24T00:06:39;99240.0;;;17.1;90.9
28456;BME280;15682;56.742;38.866;2022-07-24T00:08:39;99240.0;;;17.1;90.9
28456;BME280;15682;56.742;38.866;2022-07-24T00:10:39;99240.0;;;17.1;90.9
28456;BME280;15682;56.742;38.866;2022-07-24T00:12:40;99240.0;;;17.1;90.9
28456;BME280;15682;56.742;38.866;2022-07-24T00:14:40;99230.0;;;17.1;90.9
28456;BME280;15682;56.742;38.866;2022-07-24T00:16:41;99230.0;;;17.0;90.9
28456;BME280;15682;56.742;38.866;2022-07-24T00:18:41;99230.0;;;17.0;90.9
28456;BME280;15682;56.742;38.866;2022-07-24T00:20:41;99230.0;;;17.0;90.9
28456;BME280;15682;56.742;38.866;2022-07-24T00:22:41;99230.0;;;17.0;90.9
28456;BME280;15682;56.742;38.866;2022-07-24T00:24:42;99230.0;;;17.1;90.9
28456;BME280;15682;56.742;38.866;2022-07-24T00:26:42;99230.0;;;17.1;90.9
28456;BME280;15682;56.742;38.866;2022-07-24T00:28:42;99230.0;;;17.2;90.3
28456;BME280;15682;56.742;38.866;2022-07-24T00:30:43;99230.0;;;17.2;90.3
28456;BME280;15682;56.742;38.866;2022-07-24T00:32:43;99230.0;;;17.2;91.1
28456;BME280;15682;56.742;38.866;2022-07-24T00:34:43;99230.0;;;17.0;91.0
28456;BME280;15682;56.742;38.866;2022-07-24T00:36:44;99230.0;;;16.9;91.0
28456;BME280;15682;56.742;38.866;2022-07-24T00:38:44;99230.0;;;16.9;91.0
28456;BME280;15682;56.742;38.866;2022-07-24T00:40:44;99230.0;;;16.9;91.0
28456;BME280;15682;56.742;38.866;2022-07-24T00:42:45;99230.0;;;16.9;91.0
28456;BME280;15682;56.742;38.866;2022-07-24T00:44:45;99230.0;;;17.0;91.4
28456;BME280;15682;56.742;38.866;2022-07-24T00:46:46;99230.0;;;17.0;91.4
28456;BME280;15682;56.742;38.866;2022-07-24T00:48:45;99230.0;;;17.0;91.4
28456;BME280;15682;56.742;38.866;2022-07-24T00:50:46;99230.0;;;17.0;91.4
28456;BME280;15682;56.742;38.866;2022-07-24T00:52:46;99230.0;;;16.8;91.4
28456;BME280;15682;56.742;38.866;2022-07-24T00:54:46;99230.0;;;16.9;91.4
28456;BME280;15682;56.742;38.866;2022-07-24T00:56:49;99230.0;;;16.9;91.4
28456;BME280;15682;56.742;38.866;2022-07-24T00:58:48;99230.0;;;17.0;91.4
28456;BME280;15682;56.742;38.866;2022-07-24T01:00:47;99230.0;;;17.0;91.4
28456;BME280;15682;56.742;38.866;2022-07-24T01:02:48;99230.0;;;16.9;91.4
28456;BME280;15682;56.742;38.866;2022-07-24T01:04:49;99230.0;;;16.8;91.3
28456;BME280;15682;56.742;38.866;2022-07-24T01:06:48;99230.0;;;16.7;91.3
28456;BME280;15682;56.742;38.866;2022-07-24T01:08:49;99230.0;;;16.7;91.3
28456;BME280;15682;56.742;38.866;2022-07-24T01:10:49;99230.0;;;16.7;91.3
28456;BME280;15682;56.742;38.866;2022-07-24T01:12:49;99230.0;;;16.6;91.6
28456;BME280;15682;56.742;38.866;2022-07-24T01:14:50;99230.0;;;16.6;91.7
28456;BME280;15682;56.742;38.866;2022-07-24T01:16:50;99230.0;;;16.6;91.7
28456;BME280;15682;56.742;38.866;2022-07-24T01:18:50;99230.0;;;16.5;91.7
28456;BME280;15682;56.742;38.866;2022-07-24T01:20:51;99230.0;;;16.5;91.7
28456;BME280;15682;56.742;38.866;2022-07-24T01:22:51;99230.0;;;16.5;91.7
28456;BME280;15682;56.742;38.866;2022-07-24T01:24:51;99230.0;;;16.4;92.0
28456;BME280;15682;56.742;38.866;2022-07-24T01:26:51;99230.0;;;16.4;92.0
28456;BME280;15682;56.742;38.866;2022-07-24T01:28:52;99230.0;;;16.4;92.0
28456;BME280;15682;56.742;38.866;2022-07-24T01:30:52;99230.0;;;16.4;92.0
28456;BME280;15682;56.742;38.866;2022-07-24T01:32:52;99230.0;;;16.4;92.1
28456;BME280;15682;56.742;38.866;2022-07-24T01:34:53;99230.0;;;16.5;91.8
28456;BME280;15682;56.742;38.866;2022-07-24T01:36:53;99230.0;;;16.5;91.8
28456;BME280;15682;56.742;38.866;2022-07-24T01:38:53;99230.0;;;16.5;91.5
28456;BME280;15682;56.742;38.866;2022-07-24T01:40:54;99230.0;;;16.3;92.0
28456;BME280;15682;56.742;38.866;2022-07-24T01:42:54;99230.0;;;16.4;91.5
28456;BME280;15682;56.742;38.866;2022-07-24T01:44:54;99230.0;;;16.4;91.7
28456;BME280;15682;56.742;38.866;2022-07-24T01:46:56;99230.0;;;16.4;91.7
28456;BME280;15682;56.742;38.866;2022-07-24T01:48:55;99230.0;;;16.4;91.7
28456;BME280;15682;56.742;38.866;2022-07-24T01:50:55;99230.0;;;16.3;91.7
28456;BME280;15682;56.742;38.866;2022-07-24T01:52:55;99230.0;;;16.4;91.7
28456;BME280;15682;56.742;38.866;2022-07-24T01:54:56;99230.0;;;16.4;91.7
28456;BME280;15682;56.742;38.866;2022-07-24T01:56:56;99230.0;;;16.4;91.7
28456;BME280;15682;56.742;38.866;2022-07-24T01:58:56;99230.0;;;16.4;91.7
28456;BME280;15682;56.742;38.866;2022-07-24T02:00:57;99230.0;;;16.4;91.7
28456;BME280;15682;56.742;38.866;2022-07-24T02:02:57;99230.0;;;16.4;91.7
28456;BME280;15682;56.742;38.866;2022-07-24T02:04:57;99230.0;;;16.6;90.7
28456;BME280;15682;56.742;38.866;2022-07-24T02:06:57;99230.0;;;16.6;90.7
28456;BME280;15682;56.742;38.866;2022-07-24T02:08:58;99230.0;;;16.6;90.0
28456;BME280;15682;56.742;38.866;2022-07-24T02:10:58;99230.0;;;16.7;90.0
28456;BME280;15682;56.742;38.866;2022-07-24T02:12:58;99230.0;;;16.7;90.0
28456;BME280;15682;56.742;38.866;2022-07-24T02:14:59;99230.0;;;16.7;90.0
28456;BME280;15682;56.742;38.866;2022-07-24T02:16:59;99230.0;;;16.7;90.0
28456;BME280;15682;56.742;38.866;2022-07-24T02:18:59;99230.0;;;16.7;90.0
28456;BME280;15682;56.742;38.866;2022-07-24T02:21:00;99230.0;;;16.7;90.0
28456;BME280;15682;56.742;38.866;2022-07-24T02:23:00;99240.0;;;16.8;89.5
28456;BME280;15682;56.742;38.866;2022-07-24T02:25:00;99240.0;;;16.9;89.5
28456;BME280;15682;56.742;38.866;2022-07-24T02:27:00;99240.0;;;16.9;89.5
28456;BME280;15682;56.742;38.866;2022-07-24T02:29:01;99240.0;;;17.2;88.6
28456;BME280;15682;56.742;38.866;2022-07-24T02:31:01;99240.0;;;17.2;87.9
28456;BME280;15682;56.742;38.866;2022-07-24T02:33:01;99240.0;;;17.2;87.9
28456;BME280;15682;56.742;38.866;2022-07-24T02:35:02;99240.0;;;17.3;88.0
28456;BME280;15682;56.742;38.866;2022-07-24T02:37:02;99240.0;;;17.3;88.0
28456;BME280;15682;56.742;38.866;2022-07-24T02:39:02;99240.0;;;17.3;88.0
28456;BME280;15682;56.742;38.866;2022-07-24T02:41:03;99240.0;;;17.5;86.7
28456;BME280;15682;56.742;38.866;2022-07-24T02:43:03;99240.0;;;17.4;86.7
28456;BME280;15682;56.742;38.866;2022-07-24T02:45:05;99240.0;;;17.6;86.8
28456;BME280;15682;56.742;38.866;2022-07-24T02:47:04;99240.0;;;17.6;86.1
28456;BME280;15682;56.742;38.866;2022-07-24T02:49:04;99240.0;;;17.5;86.1
28456;BME280;15682;56.742;38.866;2022-07-24T02:51:04;99240.0;;;17.6;86.1
28456;BME280;15682;56.742;38.866;2022-07-24T02:53:05;99240.0;;;17.5;86.1
28456;BME280;15682;56.742;38.866;2022-07-24T02:55:05;99240.0;;;17.6;86.4
28456;BME280;15682;56.742;38.866;2022-07-24T02:57:05;99240.0;;;17.5;86.4
28456;BME280;15682;56.742;38.866;2022-07-24T02:59:06;99240.0;;;17.5;86.4
28456;BME280;15682;56.742;38.866;2022-07-24T03:01:06;99240.0;;;17.5;86.4
28456;BME280;15682;56.742;38.866;2022-07-24T03:03:06;99240.0;;;17.6;85.3
28456;BME280;15682;56.742;38.866;2022-07-24T03:05:07;99240.0;;;17.6;85.3
28456;BME280;15682;56.742;38.866;2022-07-24T03:07:07;99240.0;;;17.8;84.4
28456;BME280;15682;56.742;38.866;2022-07-24T03:09:07;99240.0;;;17.8;84.4
28456;BME280;15682;56.742;38.866;2022-07-24T03:11:08;99240.0;;;17.8;84.4
28456;BME280;15682;56.742;38.866;2022-07-24T03:13:08;99240.0;;;17.9;84.4
28456;BME280;15682;56.742;38.866;2022-07-24T03:15:10;99240.0;;;18.0;83.0
28456;BME280;15682;56.742;38.866;2022-07-24T03:17:08;99230.0;;;18.0;81.4
28456;BME280;15682;56.742;38.866;2022-07-24T03:19:09;99230.0;;;18.0;81.6
28456;BME280;15682;56.742;38.866;2022-07-24T03:21:09;99230.0;;;18.1;81.9
28456;BME280;15682;56.742;38.866;2022-07-24T03:23:09;99230.0;;;18.3;81.3
28456;BME280;15682;56.742;38.866;2022-07-24T03:25:10;99230.0;;;18.4;80.6
28456;BME280;15682;56.742;38.866;2022-07-24T03:27:10;99230.0;;;18.5;80.6
28456;BME280;15682;56.742;38.866;2022-07-24T03:29:11;99220.0;;;18.5;80.2
28456;BME280;15682;56.742;38.866;2022-07-24T03:31:11;99220.0;;;18.6;80.2
28456;BME280;15682;56.742;38.866;2022-07-24T03:33:12;99220.0;;;18.8;79.1
28456;BME280;15682;56.742;38.866;2022-07-24T03:35:12;99220.0;;;18.8;79.1
28456;BME280;15682;56.742;38.866;2022-07-24T03:37:12;99220.0;;;18.8;79.1
28456;BME280;15682;56.742;38.866;2022-07-24T03:39:13;99220.0;;;18.9;79.3
28456;BME280;15682;56.742;38.866;2022-07-24T03:41:16;99220.0;;;19.1;78.4
28456;BME280;15682;56.742;38.866;2022-07-24T03:43:13;99220.0;;;19.1;78.4
28456;BME280;15682;56.742;38.866;2022-07-24T03:45:13;99210.0;;;19.2;78.4
28456;BME280;15682;56.742;38.866;2022-07-24T03:47:15;99210.0;;;19.2;78.4
28456;BME280;15682;56.742;38.866;2022-07-24T03:49:15;99210.0;;;19.2;77.8
28456;BME280;15682;56.742;38.866;2022-07-24T03:51:15;99210.0;;;19.4;77.8
28456;BME280;15682;56.742;38.866;2022-07-24T03:53:15;99210.0;;;19.5;77.2
28456;BME280;15682;56.742;38.866;2022-07-24T03:55:16;99210.0;;;19.5;77.2
28456;BME280;15682;56.742;38.866;2022-07-24T03:57:16;99210.0;;;19.7;77.2
28456;BME280;15682;56.742;38.866;2022-07-24T03:59:17;99210.0;;;19.9;76.7
28456;BME280;15682;56.742;38.866;2022-07-24T04:01:18;99210.0;;;19.9;76.7
28456;BME280;15682;56.742;38.866;2022-07-24T04:03:18;99210.0;;;20.1;75.9
28456;BME280;15682;56.742;38.866;2022-07-24T04:05:19;99210.0;;;20.1;75.3
28456;BME280;15682;56.742;38.866;2022-07-24T04:07:19;99210.0;;;20.2;74.4
28456;BME280;15682;56.742;38.866;2022-07-24T04:09:20;99210.0;;;20.2;74.3
28456;BME280;15682;56.742;38.866;2022-07-24T04:11:20;99210.0;;;20.4;73.9
28456;BME280;15682;56.742;38.866;2022-07-24T04:13:21;99210.0;;;20.6;73.9
28456;BME280;15682;56.742;38.866;2022-07-24T04:15:22;99200.0;;;20.7;73.9
28456;BME280;15682;56.742;38.866;2022-07-24T04:17:22;99200.0;;;20.8;73.9
28456;BME280;15682;56.742;38.866;2022-07-24T04:19:23;99200.0;;;20.8;73.1
28456;BME280;15682;56.742;38.866;2022-07-24T04:21:24;99200.0;;;21.0;73.8
28456;BME280;15682;56.742;38.866;2022-07-24T04:23:24;99200.0;;;21.0;73.8
28456;BME280;15682;56.742;38.866;2022-07-24T04:25:25;99200.0;;;21.1;72.4
28456;BME280;15682;56.742;38.866;2022-07-24T04:27:26;99200.0;;;21.1;72.4
28456;BME280;15682;56.742;38.866;2022-07-24T04:29:26;99200.0;;;21.3;71.9
28456;BME280;15682;56.742;38.866;2022-07-24T04:31:27;99200.0;;;21.4;71.4
28456;BME280;15682;56.742;38.866;2022-07-24T04:33:28;99200.0;;;21.5;71.4
28456;BME280;15682;56.742;38.866;2022-07-24T04:35:28;99200.0;;;21.7;70.1
28456;BME280;15682;56.742;38.866;2022-07-24T04:37:29;99200.0;;;21.8;70.1
28456;BME280;15682;56.742;38.866;2022-07-24T04:39:30;99200.0;;;21.9;69.5
28456;BME280;15682;56.742;38.866;2022-07-24T04:41:30;99200.0;;;22.0;69.5
28456;BME280;15682;56.742;38.866;2022-07-24T04:43:31;99200.0;;;22.1;69.5
28456;BME280;15682;56.742;38.866;2022-07-24T04:45:32;99200.0;;;22.1;69.5
28456;BME280;15682;56.742;38.866;2022-07-24T04:47:33;99190.0;;;22.2;69.5
28456;BME280;15682;56.742;38.866;2022-07-24T04:49:35;99190.0;;;22.2;67.7
28456;BME280;15682;56.742;38.866;2022-07-24T04:51:34;99190.0;;;22.4;68.4
28456;BME280;15682;56.742;38.866;2022-07-24T04:53:35;99190.0;;;22.6;67.7
28456;BME280;15682;56.742;38.866;2022-07-24T04:55:36;99190.0;;;22.6;67.0
28456;BME280;15682;56.742;38.866;2022-07-24T04:57:37;99190.0;;;22.7;67.0
28456;BME280;15682;56.742;38.866;2022-07-24T04:59:37;99190.0;;;22.8;65.9
28456;BME280;15682;56.742;38.866;2022-07-24T05:01:38;99190.0;;;22.9;65.9
28456;BME280;15682;56.742;38.866;2022-07-24T05:03:39;99190.0;;;23.0;63.6
28456;BME280;15682;56.742;38.866;2022-07-24T05:05:39;99190.0;;;23.1;63.6
28456;BME280;15682;56.742;38.866;2022-07-24T05:07:40;99190.0;;;23.1;63.6
28456;BME280;15682;56.742;38.866;2022-07-24T05:09:41;99180.0;;;23.3;65.1
28456;BME280;15682;56.742;38.866;2022-07-24T05:11:42;99180.0;;;23.3;62.4
28456;BME280;15682;56.742;38.866;2022-07-24T05:13:42;99180.0;;;23.4;62.4
28456;BME280;15682;56.742;38.866;2022-07-24T05:15:43;99180.0;;;23.4;61.9
28456;BME280;15682;56.742;38.866;2022-07-24T05:17:44;99180.0;;;23.4;62.4
28456;BME280;15682;56.742;38.866;2022-07-24T05:19:45;99180.0;;;23.4;62.8
28456;BME280;15682;56.742;38.866;2022-07-24T05:21:45;99180.0;;;23.4;62.8
28456;BME280;15682;56.742;38.866;2022-07-24T05:23:46;99180.0;;;23.5;62.9
28456;BME280;15682;56.742;38.866;2022-07-24T05:25:47;99180.0;;;23.6;62.3
28456;BME280;15682;56.742;38.866;2022-07-24T05:27:48;99170.0;;;23.6;62.3
28456;BME280;15682;56.742;38.866;2022-07-24T05:29:48;99170.0;;;23.6;61.8
28456;BME280;15682;56.742;38.866;2022-07-24T05:31:49;99170.0;;;23.8;61.3
28456;BME280;15682;56.742;38.866;2022-07-24T05:33:50;99160.0;;;23.8;61.3
28456;BME280;15682;56.742;38.866;2022-07-24T05:35:51;99160.0;;;23.9;60.1
28456;BME280;15682;56.742;38.866;2022-07-24T05:37:52;99160.0;;;23.9;58.6
28456;BME280;15682;56.742;38.866;2022-07-24T05:39:52;99160.0;;;24.1;58.4
28456;BME280;15682;56.742;38.866;2022-07-24T05:41:53;99160.0;;;24.1;57.2
28456;BME280;15682;56.742;38.866;2022-07-24T05:43:54;99170.0;;;24.2;58.2
28456;BME280;15682;56.742;38.866;2022-07-24T05:45:55;99170.0;;;24.2;57.0
28456;BME280;15682;56.742;38.866;2022-07-24T05:47:55;99170.0;;;24.2;57.5
28456;BME280;15682;56.742;38.866;2022-07-24T05:49:56;99170.0;;;24.2;57.2
28456;BME280;15682;56.742;38.866;2022-07-24T05:51:57;99170.0;;;24.3;57.2
28456;BME280;15682;56.742;38.866;2022-07-24T05:53:58;99170.0;;;24.3;58.3
28456;BME280;15682;56.742;38.866;2022-07-24T05:55:59;99170.0;;;24.3;58.3
28456;BME280;15682;56.742;38.866;2022-07-24T05:57:59;99170.0;;;24.6;59.2
28456;BME280;15682;56.742;38.866;2022-07-24T06:00:00;99170.0;;;24.8;59.2
28456;BME280;15682;56.742;38.866;2022-07-24T06:02:01;99170.0;;;24.9;60.4
28456;BME280;15682;56.742;38.866;2022-07-24T06:04:02;99170.0;;;25.1;57.1
28456;BME280;15682;56.742;38.866;2022-07-24T06:06:03;99170.0;;;25.1;57.1
28456;BME280;15682;56.742;38.866;2022-07-24T06:08:04;99160.0;;;25.2;57.7
28456;BME280;15682;56.742;38.866;2022-07-24T06:10:05;99160.0;;;25.2;57.4
28456;BME280;15682;56.742;38.866;2022-07-24T06:12:06;99160.0;;;25.4;56.6
28456;BME280;15682;56.742;38.866;2022-07-24T06:14:06;99160.0;;;25.4;55.9
28456;BME280;15682;56.742;38.866;2022-07-24T06:16:07;99160.0;;;25.4;58.0
28456;BME280;15682;56.742;38.866;2022-07-24T06:18:07;99160.0;;;25.4;58.0
28456;BME280;15682;56.742;38.866;2022-07-24T06:20:10;99170.0;;;25.5;57.8
28456;BME280;15682;56.742;38.866;2022-07-24T06:22:09;99170.0;;;25.6;58.7
28456;BME280;15682;56.742;38.866;2022-07-24T06:24:10;99170.0;;;25.6;58.7
28456;BME280;15682;56.742;38.866;2022-07-24T06:26:11;99170.0;;;25.5;58.7
28456;BME280;15682;56.742;38.866;2022-07-24T06:28:11;99170.0;;;25.5;58.7
28456;BME280;15682;56.742;38.866;2022-07-24T06:30:14;99170.0;;;25.7;58.7
28456;BME280;15682;56.742;38.866;2022-07-24T06:32:13;99160.0;;;25.7;58.7
28456;BME280;15682;56.742;38.866;2022-07-24T06:34:14;99160.0;;;25.8;58.7
28456;BME280;15682;56.742;38.866;2022-07-24T06:36:14;99160.0;;;25.8;58.0
28456;BME280;15682;56.742;38.866;2022-07-24T06:38:15;99160.0;;;25.8;56.7
28456;BME280;15682;56.742;38.866;2022-07-24T06:40:17;99160.0;;;25.8;57.6
28456;BME280;15682;56.742;38.866;2022-07-24T06:42:17;99160.0;;;25.9;56.6
28456;BME280;15682;56.742;38.866;2022-07-24T06:44:18;99160.0;;;25.9;56.1
28456;BME280;15682;56.742;38.866;2022-07-24T06:46:18;99160.0;;;25.9;56.1
28456;BME280;15682;56.742;38.866;2022-07-24T06:48:19;99160.0;;;26.2;55.4
28456;BME280;15682;56.742;38.866;2022-07-24T06:50:20;99160.0;;;26.2;52.9
28456;BME280;15682;56.742;38.866;2022-07-24T06:52:21;99160.0;;;26.0;54.3
28456;BME280;15682;56.742;38.866;2022-07-24T06:54:22;99160.0;;;26.2;52.1
28456;BME280;15682;56.742;38.866;2022-07-24T06:56:22;99150.0;;;26.2;51.3
28456;BME280;15682;56.742;38.866;2022-07-24T06:58:23;99150.0;;;26.4;51.3
28456;BME280;15682;56.742;38.866;2022-07-24T07:00:24;99150.0;;;26.4;52.4
28456;BME280;15682;56.742;38.866;2022-07-24T07:02:25;99150.0;;;26.3;54.0
28456;BME280;15682;56.742;38.866;2022-07-24T07:04:26;99150.0;;;26.3;54.0
28456;BME280;15682;56.742;38.866;2022-07-24T07:06:27;99150.0;;;26.3;52.6
28456;BME280;15682;56.742;38.866;2022-07-24T07:08:27;99150.0;;;26.3;53.9
28456;BME280;15682;56.742;38.866;2022-07-24T07:10:28;99140.0;;;26.3;53.9
28456;BME280;15682;56.742;38.866;2022-07-24T07:12:29;99140.0;;;26.5;53.2
28456;BME280;15682;56.742;38.866;2022-07-24T07:14:30;99140.0;;;26.3;51.5
28456;BME280;15682;56.742;38.866;2022-07-24T07:16:31;99140.0;;;26.2;51.5
28456;BME280;15682;56.742;38.866;2022-07-24T07:18:31;99140.0;;;26.2;52.1
28456;BME280;15682;56.742;38.866;2022-07-24T07:20:32;99130.0;;;26.4;52.1
28456;BME280;15682;56.742;38.866;2022-07-24T07:22:33;99130.0;;;26.4;50.0
28456;BME280;15682;56.742;38.866;2022-07-24T07:24:34;99130.0;;;26.6;50.0
28456;BME280;15682;56.742;38.866;2022-07-24T07:26:34;99130.0;;;26.6;51.8
28456;BME280;15682;56.742;38.866;2022-07-24T07:28:35;99130.0;;;26.7;51.8
28456;BME280;15682;56.742;38.866;2022-07-24T07:30:36;99130.0;;;26.7;51.0
28456;BME280;15682;56.742;38.866;2022-07-24T07:32:37;99120.0;;;26.7;50.9
28456;BME280;15682;56.742;38.866;2022-07-24T07:34:38;99120.0;;;26.8;50.1
28456;BME280;15682;56.742;38.866;2022-07-24T07:36:38;99120.0;;;26.8;51.0
28456;BME280;15682;56.742;38.866;2022-07-24T07:38:39;99120.0;;;26.8;49.4
28456;BME280;15682;56.742;38.866;2022-07-24T07:40:40;99120.0;;;26.8;48.3
28456;BME280;15682;56.742;38.866;2022-07-24T07:42:41;99120.0;;;27.0;49.0
28456;BME280;15682;56.742;38.866;2022-07-24T07:44:41;99120.0;;;27.0;48.3
28456;BME280;15682;56.742;38.866;2022-07-24T07:46:42;99120.0;;;27.0;48.3
28456;BME280;15682;56.742;38.866;2022-07-24T07:48:43;99120.0;;;27.1;47.8
28456;BME280;15682;56.742;38.866;2022-07-24T07:50:44;99120.0;;;27.5;47.1
28456;BME280;15682;56.742;38.866;2022-07-24T07:52:44;99120.0;;;27.5;46.4
28456;BME280;15682;56.742;38.866;2022-07-24T07:54:45;99130.0;;;27.6;46.9
28456;BME280;15682;56.742;38.866;2022-07-24T07:56:46;99130.0;;;27.6;46.9
28456;BME280;15682;56.742;38.866;2022-07-24T07:58:46;99130.0;;;27.6;46.2
28456;BME280;15682;56.742;38.866;2022-07-24T08:00:47;99130.0;;;27.4;45.3
28456;BME280;15682;56.742;38.866;2022-07-24T08:02:48;99130.0;;;27.7;45.9
28456;BME280;15682;56.742;38.866;2022-07-24T08:04:48;99130.0;;;27.9;45.9
28456;BME280;15682;56.742;38.866;2022-07-24T08:06:49;99130.0;;;28.1;44.8
28456;BME280;15682;56.742;38.866;2022-07-24T08:08:50;99120.0;;;28.1;44.2
28456;BME280;15682;56.742;38.866;2022-07-24T08:10:50;99120.0;;;28.0;44.8
28456;BME280;15682;56.742;38.866;2022-07-24T08:12:51;99120.0;;;28.2;43.7
28456;BME280;15682;56.742;38.866;2022-07-24T08:14:52;99120.0;;;27.8;46.1
28456;BME280;15682;56.742;38.866;2022-07-24T08:16:53;99120.0;;;27.7;45.2
28456;BME280;15682;56.742;38.866;2022-07-24T08:18:53;99120.0;;;27.9;46.5
28456;BME280;15682;56.742;38.866;2022-07-24T08:20:54;99120.0;;;27.5;47.3
28456;BME280;15682;56.742;38.866;2022-07-24T08:22:54;99120.0;;;27.5;49.1
28456;BME280;15682;56.742;38.866;2022-07-24T08:24:55;99120.0;;;27.5;49.1
28456;BME280;15682;56.742;38.866;2022-07-24T08:26:56;99120.0;;;27.5;48.5
28456;BME280;15682;56.742;38.866;2022-07-24T08:28:57;99120.0;;;27.9;48.3
28456;BME280;15682;56.742;38.866;2022-07-24T08:30:57;99120.0;;;28.3;45.1
28456;BME280;15682;56.742;38.866;2022-07-24T08:32:58;99120.0;;;28.3;44.7
28456;BME280;15682;56.742;38.866;2022-07-24T08:34:58;99110.0;;;28.5;44.0
28456;BME280;15682;56.742;38.866;2022-07-24T08:36:59;99110.0;;;28.3;45.0
28456;BME280;15682;56.742;38.866;2022-07-24T08:38:59;99110.0;;;27.6;47.9
28456;BME280;15682;56.742;38.866;2022-07-24T08:41:00;99110.0;;;27.4;48.9
28456;BME280;15682;56.742;38.866;2022-07-24T08:43:01;99110.0;;;27.1;50.0
28456;BME280;15682;56.742;38.866;2022-07-24T08:45:03;99110.0;;;27.0;50.0
28456;BME280;15682;56.742;38.866;2022-07-24T08:47:02;99110.0;;;27.0;50.0
28456;BME280;15682;56.742;38.866;2022-07-24T08:49:03;99110.0;;;28.0;49.0
28456;BME280;15682;56.742;38.866;2022-07-24T08:51:04;99110.0;;;28.5;46.3
28456;BME280;15682;56.742;38.866;2022-07-24T08:53:05;99090.0;;;28.5;47.1
28456;BME280;15682;56.742;38.866;2022-07-24T08:55:06;99090.0;;;28.5;45.4
28456;BME280;15682;56.742;38.866;2022-07-24T08:57:05;99090.0;;;28.7;45.4
28456;BME280;15682;56.742;38.866;2022-07-24T08:59:15;99090.0;;;29.1;44.5
28456;BME280;15682;56.742;38.866;2022-07-24T09:01:07;99090.0;;;29.3;44.3
28456;BME280;15682;56.742;38.866;2022-07-24T09:03:07;99090.0;;;29.3;45.3
28456;BME280;15682;56.742;38.866;2022-07-24T09:05:09;99090.0;;;29.1;45.7
28456;BME280;15682;56.742;38.866;2022-07-24T09:07:10;99090.0;;;28.8;45.7
28456;BME280;15682;56.742;38.866;2022-07-24T09:09:09;99090.0;;;29.0;43.9
28456;BME280;15682;56.742;38.866;2022-07-24T09:11:10;99090.0;;;29.2;43.9
28456;BME280;15682;56.742;38.866;2022-07-24T09:13:13;99090.0;;;29.3;44.4
28456;BME280;15682;56.742;38.866;2022-07-24T09:15:13;99090.0;;;29.3;44.1
28456;BME280;15682;56.742;38.866;2022-07-24T09:17:15;99090.0;;;29.3;44.2
28456;BME280;15682;56.742;38.866;2022-07-24T09:19:12;99090.0;;;29.6;44.2
28456;BME280;15682;56.742;38.866;2022-07-24T09:21:14;99090.0;;;30.0;44.3
28456;BME280;15682;56.742;38.866;2022-07-24T09:23:19;99090.0;;;30.0;44.5
28456;BME280;15682;56.742;38.866;2022-07-24T09:25:16;99090.0;;;30.0;45.4
28456;BME280;15682;56.742;38.866;2022-07-24T09:27:17;99090.0;;;30.1;45.0
28456;BME280;15682;56.742;38.866;2022-07-24T09:29:16;99090.0;;;30.4;45.5
28456;BME280;15682;56.742;38.866;2022-07-24T09:31:16;99090.0;;;30.1;44.5
28456;BME280;15682;56.742;38.866;2022-07-24T09:33:18;99090.0;;;30.2;44.6
28456;BME280;15682;56.742;38.866;2022-07-24T09:35:17;99090.0;;;30.4;43.8
28456;BME280;15682;56.742;38.866;2022-07-24T09:37:19;99090.0;;;30.5;43.8
28456;BME280;15682;56.742;38.866;2022-07-24T09:39:19;99090.0;;;30.8;43.8
28456;BME280;15682;56.742;38.866;2022-07-24T09:41:20;99090.0;;;30.6;43.8
28456;BME280;15682;56.742;38.866;2022-07-24T09:43:22;99090.0;;;30.6;44.9
28456;BME280;15682;56.742;38.866;2022-07-24T09:45:21;99080.0;;;30.6;44.0
28456;BME280;15682;56.742;38.866;2022-07-24T09:47:21;99080.0;;;30.6;44.7
28456;BME280;15682;56.742;38.866;2022-07-24T09:49:22;99080.0;;;30.4;44.7
28456;BME280;15682;56.742;38.866;2022-07-24T09:51:23;99080.0;;;30.4;44.7
28456;BME280;15682;56.742;38.866;2022-07-24T09:53:26;99080.0;;;30.6;44.1
28456;BME280;15682;56.742;38.866;2022-07-24T09:55:24;99080.0;;;30.0;45.6
28456;BME280;15682;56.742;38.866;2022-07-24T09:57:26;99080.0;;;30.2;44.8
28456;BME280;15682;56.742;38.866;2022-07-24T09:59:25;99080.0;;;29.5;46.8
28456;BME280;15682;56.742;38.866;2022-07-24T10:01:26;99080.0;;;29.0;48.5
28456;BME280;15682;56.742;38.866;2022-07-24T10:03:28;99080.0;;;29.1;48.3
28456;BME280;15682;56.742;38.866;2022-07-24T10:05:27;99070.0;;;29.5;46.6
28456;BME280;15682;56.742;38.866;2022-07-24T10:07:29;99070.0;;;29.4;46.2
28456;BME280;15682;56.742;38.866;2022-07-24T10:09:29;99060.0;;;29.6;46.2
28456;BME280;15682;56.742;38.866;2022-07-24T10:11:30;99070.0;;;29.6;45.0
28456;BME280;15682;56.742;38.866;2022-07-24T10:13:30;99070.0;;;29.7;46.1
28456;BME280;15682;56.742;38.866;2022-07-24T10:15:33;99070.0;;;29.8;46.1
28456;BME280;15682;56.742;38.866;2022-07-24T10:17:50;99070.0;;;29.9;45.2
28456;BME280;15682;56.742;38.866;2022-07-24T10:19:39;99060.0;;;29.9;45.1
28456;BME280;15682;56.742;38.866;2022-07-24T10:21:33;99060.0;;;29.7;45.8
28456;BME280;15682;56.742;38.866;2022-07-24T10:23:46;99060.0;;;29.7;44.3
28456;BME280;15682;56.742;38.866;2022-07-24T10:25:44;99060.0;;;29.5;44.3
28456;BME280;15682;56.742;38.866;2022-07-24T10:27:35;99050.0;;;29.6;44.3
28456;BME280;15682;56.742;38.866;2022-07-24T10:29:34;99050.0;;;29.8;44.0
28456;BME280;15682;56.742;38.866;2022-07-24T10:31:36;99050.0;;;30.0;44.6
28456;BME280;15682;56.742;38.866;2022-07-24T10:33:38;99050.0;;;29.8;44.2
28456;BME280;15682;56.742;38.866;2022-07-24T10:35:37;99050.0;;;29.8;44.2
28456;BME280;15682;56.742;38.866;2022-07-24T10:37:48;99050.0;;;29.6;45.0
28456;BME280;15682;56.742;38.866;2022-07-24T10:39:50;99050.0;;;29.6;45.7
28456;BME280;15682;56.742;38.866;2022-07-24T10:41:38;99050.0;;;29.4;46.3
28456;BME280;15682;56.742;38.866;2022-07-24T10:43:38;99050.0;;;29.5;44.7
28456;BME280;15682;56.742;38.866;2022-07-24T10:45:42;99050.0;;;29.5;44.7
28456;BME280;15682;56.742;38.866;2022-07-24T10:47:40;99040.0;;;29.8;44.6
28456;BME280;15682;56.742;38.866;2022-07-24T10:49:43;99040.0;;;29.8;45.6
28456;BME280;15682;56.742;38.866;2022-07-24T10:51:57;99040.0;;;29.9;44.5
28456;BME280;15682;56.742;38.866;2022-07-24T10:53:46;99040.0;;;29.7;44.7
28456;BME280;15682;56.742;38.866;2022-07-24T10:55:42;99040.0;;;29.4;46.0